createdAt,value
2018-11-12T00:00:15.651Z,0.70
2018-11-12T00:02:45.722Z,2.83
2018-11-12T00:05:14.133Z,2.30
2018-11-12T00:07:42.612Z,1.70
2018-11-12T00:10:11.003Z,1.50
2018-11-12T00:12:39.784Z,7.83
2018-11-12T00:15:09.600Z,3.70
2018-11-12T00:17:37.990Z,1.70
2018-11-12T00:20:07.510Z,6.33
2018-11-12T00:22:36.169Z,1.20
2018-11-12T00:25:05.053Z,1.30
2018-11-12T00:27:33.474Z,1.32
2018-11-12T00:30:01.837Z,3.30
2018-11-12T00:32:30.383Z,1.37
2018-11-12T00:34:58.886Z,1.23
2018-11-12T00:37:27.270Z,1.35
2018-11-12T00:39:55.668Z,2.73
2018-11-12T00:42:24.032Z,0.60
2018-11-12T00:44:52.380Z,1.53
2018-11-12T00:47:20.772Z,1.27
2018-11-12T00:49:49.143Z,2.20
2018-11-12T00:52:17.816Z,5.00
2018-11-12T00:54:46.195Z,0.83
2018-11-12T00:57:14.621Z,0.70
2018-11-12T00:59:43.224Z,1.20
2018-11-12T01:02:11.623Z,1.67
2018-11-12T01:04:40.375Z,2.77
2018-11-12T01:07:08.769Z,3.92
2018-11-12T01:09:37.673Z,1.77
2018-11-12T01:12:06.770Z,1.20
2018-11-12T01:14:35.429Z,1.00
2018-11-12T01:17:03.811Z,0.60
2018-11-12T01:19:32.513Z,1.23
2018-11-12T01:22:00.903Z,1.75
2018-11-12T01:24:29.263Z,0.60
2018-11-12T01:26:57.646Z,0.50
2018-11-12T01:29:26.313Z,1.37
2018-11-12T01:31:54.973Z,2.50
2018-11-12T01:34:23.330Z,1.10
2018-11-12T01:36:51.719Z,1.40
2018-11-12T01:39:20.090Z,9.73
2018-11-12T01:41:48.469Z,0.83
2018-11-12T01:44:16.827Z,6.63
2018-11-12T01:46:45.219Z,16.63
2018-11-12T01:49:13.573Z,1.57
2018-11-12T01:51:41.942Z,0.80
2018-11-12T01:54:10.344Z,1.10
2018-11-12T01:56:38.686Z,2.00
2018-11-12T01:59:07.036Z,4.10
2018-11-12T02:01:35.458Z,1.53
2018-11-12T02:04:03.834Z,1.47
2018-11-12T02:06:32.183Z,0.67
2018-11-12T02:09:00.658Z,0.60
2018-11-12T02:11:31.519Z,0.73
2018-11-12T02:13:59.872Z,0.70
2018-11-12T02:16:28.253Z,0.70
2018-11-12T02:18:56.600Z,2.00
2018-11-12T02:21:24.973Z,4.67
2018-11-12T02:23:53.332Z,1.13
2018-11-12T02:26:21.667Z,0.70
2018-11-12T02:28:50.073Z,1.53
2018-11-12T02:31:18.626Z,0.77
2018-11-12T02:33:46.987Z,1.37
2018-11-12T02:36:15.915Z,4.53
2018-11-12T02:38:44.304Z,4.00
2018-11-12T02:41:12.668Z,1.87
2018-11-12T02:43:41.036Z,1.33
2018-11-12T02:46:09.499Z,1.90
2018-11-12T02:48:38.328Z,1.07
2018-11-12T02:51:06.845Z,0.97
2018-11-12T02:53:35.348Z,1.60
2018-11-12T02:56:03.751Z,2.43
2018-11-12T02:58:32.269Z,0.80
2018-11-12T03:01:00.668Z,1.07
2018-11-12T03:03:29.012Z,0.90
2018-11-12T03:05:57.419Z,2.30
2018-11-12T03:08:25.810Z,1.40
2018-11-12T03:10:54.474Z,2.25
2018-11-12T03:13:22.818Z,0.90
2018-11-12T03:15:51.201Z,0.50
2018-11-12T03:18:19.552Z,0.57
2018-11-12T03:20:47.916Z,0.50
2018-11-12T03:23:16.292Z,0.60
2018-11-12T03:25:44.652Z,0.60
2018-11-12T03:28:13.000Z,0.60
2018-11-12T03:30:41.766Z,0.80
2018-11-12T03:33:10.110Z,0.90
2018-11-12T03:35:38.476Z,0.63
2018-11-12T03:38:06.861Z,0.57
2018-11-12T03:40:35.256Z,0.93
2018-11-12T03:43:03.626Z,0.50
2018-11-12T03:45:32.006Z,0.43
2018-11-12T03:48:00.351Z,0.83
2018-11-12T03:50:28.835Z,0.60
2018-11-12T03:52:57.230Z,2.30
2018-11-12T03:55:25.571Z,0.60
2018-11-12T03:57:53.923Z,0.60
2018-11-12T04:00:24.239Z,0.50
2018-11-12T04:02:52.901Z,0.60
2018-11-12T04:05:21.252Z,4.10
2018-11-12T04:07:49.729Z,2.43
2018-11-12T04:10:19.195Z,0.57
2018-11-12T04:12:47.564Z,1.07
2018-11-12T04:15:17.436Z,0.60
2018-11-12T04:17:45.972Z,0.50
2018-11-12T04:20:16.599Z,0.50
2018-11-12T04:22:50.232Z,0.47
2018-11-12T04:25:18.822Z,0.47
2018-11-12T04:27:47.279Z,0.70
2018-11-12T04:30:16.187Z,0.53
2018-11-12T04:32:45.573Z,1.27
2018-11-12T04:35:13.945Z,3.90
2018-11-12T04:37:42.322Z,1.17
2018-11-12T04:40:13.788Z,0.47
2018-11-12T04:42:42.330Z,0.80
2018-11-12T04:45:12.925Z,0.63
2018-11-12T04:47:41.690Z,1.20
2018-11-12T04:50:12.243Z,2.27
2018-11-12T04:52:41.150Z,1.27
2018-11-12T04:55:11.344Z,0.50
2018-11-12T04:57:40.318Z,1.50
2018-11-12T05:00:12.751Z,1.70
2018-11-12T05:02:41.383Z,0.80
2018-11-12T05:05:11.251Z,8.40
2018-11-12T05:07:39.784Z,2.43
2018-11-12T05:10:10.532Z,1.70
2018-11-12T05:12:39.517Z,1.47
2018-11-12T05:15:09.773Z,8.13
2018-11-12T05:17:38.829Z,1.90
2018-11-12T05:20:09.360Z,1.22
2018-11-12T05:22:37.736Z,1.20
2018-11-12T05:25:06.744Z,4.30
2018-11-12T05:27:35.111Z,1.80
2018-11-12T05:30:04.078Z,1.82
2018-11-12T05:32:32.441Z,1.37
2018-11-12T05:35:00.854Z,1.27
2018-11-12T05:37:29.289Z,2.35
2018-11-12T05:39:57.615Z,1.30
2018-11-12T05:42:25.995Z,1.17
2018-11-12T05:44:54.407Z,1.95
2018-11-12T05:47:22.963Z,1.90
2018-11-12T05:49:51.635Z,1.70
2018-11-12T05:52:20.040Z,1.67
2018-11-12T05:54:48.726Z,1.55
2018-11-12T05:57:17.093Z,2.33
2018-11-12T05:59:45.475Z,3.53
2018-11-12T06:02:13.844Z,4.10
2018-11-12T06:04:42.581Z,3.37
2018-11-12T06:07:10.985Z,2.67
2018-11-12T06:09:39.362Z,4.03
2018-11-12T06:12:07.722Z,2.62
2018-11-12T06:14:36.376Z,2.80
2018-11-12T06:17:05.017Z,2.10
2018-11-12T06:19:33.380Z,2.35
2018-11-12T06:22:01.763Z,13.30
2018-11-12T06:24:30.123Z,2.37
2018-11-12T06:26:58.484Z,4.20
2018-11-12T06:29:26.973Z,1.80
2018-11-12T06:31:55.351Z,4.07
2018-11-12T06:34:23.704Z,6.47
2018-11-12T06:36:52.251Z,5.00
2018-11-12T06:39:21.189Z,2.57
2018-11-12T06:41:49.555Z,2.87
2018-11-12T06:44:18.228Z,2.00
2018-11-12T06:46:46.850Z,8.37
2018-11-12T06:49:15.230Z,3.53
2018-11-12T06:51:43.632Z,2.60
2018-11-12T06:54:12.329Z,4.00
2018-11-12T06:56:40.688Z,4.43
2018-11-12T06:59:09.080Z,4.00
2018-11-12T07:01:37.683Z,5.13
2018-11-12T07:04:06.061Z,10.60
2018-11-12T07:06:34.539Z,5.10
2018-11-12T07:09:02.995Z,11.23
2018-11-12T07:11:31.352Z,4.80
2018-11-12T07:13:59.727Z,4.30
2018-11-12T07:16:28.117Z,4.10
2018-11-12T07:18:56.593Z,3.85
2018-11-12T07:21:24.890Z,4.80
2018-11-12T07:23:53.268Z,4.03
2018-11-12T07:26:21.637Z,3.87
2018-11-12T07:28:50.035Z,5.83
2018-11-12T07:31:18.424Z,7.20
2018-11-12T07:33:46.772Z,6.40
2018-11-12T07:36:15.150Z,7.60
2018-11-12T07:38:43.534Z,5.30
2018-11-12T07:41:11.881Z,5.50
2018-11-12T07:43:40.338Z,6.80
2018-11-12T07:46:08.730Z,4.80
2018-11-12T07:48:37.563Z,9.17
2018-11-12T07:51:06.360Z,6.70
2018-11-12T07:53:34.944Z,4.57
2018-11-12T07:56:03.320Z,8.03
2018-11-12T07:58:31.702Z,5.30
2018-11-12T08:01:00.375Z,5.47
2018-11-12T08:03:28.838Z,5.73
2018-11-12T08:05:57.172Z,5.62
2018-11-12T08:08:25.517Z,6.23
2018-11-12T08:10:53.907Z,12.15
2018-11-12T08:13:22.295Z,10.17
2018-11-12T08:15:50.979Z,10.20
2018-11-12T08:18:19.352Z,10.30
2018-11-12T08:20:48.061Z,22.77
2018-11-12T08:23:16.427Z,25.10
2018-11-12T08:25:44.819Z,24.98
2018-11-12T08:28:13.201Z,18.75
2018-11-12T08:30:41.596Z,27.00
2018-11-12T08:33:10.001Z,37.53
2018-11-12T08:35:38.445Z,13.07
2018-11-12T08:38:06.849Z,9.23
2018-11-12T08:40:35.433Z,10.63
2018-11-12T08:43:03.818Z,11.30
2018-11-12T08:45:32.158Z,18.90
2018-11-12T08:48:00.534Z,12.50
2018-11-12T08:50:28.926Z,15.90
2018-11-12T08:52:57.816Z,12.73
2018-11-12T08:55:28.659Z,10.17
2018-11-12T08:57:59.641Z,8.77
2018-11-12T09:00:28.486Z,9.50
2018-11-12T09:02:56.876Z,10.57
2018-11-12T09:05:26.605Z,8.17
2018-11-12T09:07:56.357Z,8.23
2018-11-12T09:10:26.330Z,8.87
2018-11-12T09:12:54.729Z,12.60
2018-11-12T09:15:23.091Z,14.30
2018-11-12T09:17:51.612Z,7.80
2018-11-12T09:20:28.144Z,9.50
2018-11-12T09:22:56.752Z,8.10
2018-11-12T09:25:26.222Z,10.83
2018-11-12T09:27:54.657Z,14.57
2018-11-12T09:30:25.315Z,15.57
2018-11-12T09:32:53.828Z,9.87
2018-11-12T09:35:23.661Z,9.07
2018-11-12T09:37:52.934Z,12.40
2018-11-12T09:40:23.779Z,11.23
2018-11-12T09:42:52.201Z,8.90
2018-11-12T09:45:20.555Z,9.90
2018-11-12T09:47:48.968Z,12.27
2018-11-12T09:50:18.868Z,11.80
2018-11-12T09:52:48.343Z,16.03
2018-11-12T09:55:17.537Z,12.17
2018-11-12T09:57:47.358Z,12.13
2018-11-12T10:00:17.115Z,9.43
2018-11-12T10:02:47.312Z,58.63
2018-11-12T10:05:17.229Z,28.07
2018-11-12T10:07:46.324Z,20.07
2018-11-12T10:10:28.228Z,14.10
2018-11-12T10:12:56.027Z,11.50
2018-11-12T10:15:24.531Z,9.63
2018-11-12T10:17:53.208Z,15.03
2018-11-12T10:20:19.579Z,17.53
2018-11-12T10:22:48.588Z,12.70
2018-11-12T10:25:17.579Z,26.60
2018-11-12T10:27:46.120Z,17.13
2018-11-12T10:30:14.495Z,16.87
2018-11-12T10:32:42.912Z,19.87
2018-11-12T10:35:11.580Z,22.65
2018-11-12T10:37:40.774Z,28.70
2018-11-12T10:40:13.216Z,23.70
2018-11-12T10:42:41.599Z,24.53
2018-11-12T10:45:10.023Z,21.77
2018-11-12T10:47:38.436Z,26.30
2018-11-12T10:50:07.127Z,27.00
2018-11-12T10:52:36.072Z,20.82
2018-11-12T10:55:05.716Z,20.57
2018-11-12T10:57:33.813Z,14.33
2018-11-12T11:00:02.190Z,23.20
2018-11-12T11:02:35.761Z,22.30
2018-11-12T11:05:04.456Z,16.17
2018-11-12T11:07:33.135Z,15.90
2018-11-12T11:10:01.541Z,10.37
2018-11-12T11:12:29.917Z,11.37
2018-11-12T11:14:58.297Z,22.27
2018-11-12T11:17:26.695Z,12.17
2018-11-12T11:19:55.287Z,10.50
2018-11-12T11:22:23.651Z,9.53
2018-11-12T11:24:52.054Z,10.60
2018-11-12T11:27:20.468Z,8.58
2018-11-12T11:29:48.815Z,6.27
2018-11-12T11:32:17.265Z,8.00
2018-11-12T11:34:45.918Z,6.62
2018-11-12T11:37:15.272Z,7.73
2018-11-12T11:39:43.674Z,8.50
2018-11-12T11:42:12.234Z,7.47
2018-11-12T11:44:40.587Z,7.03
2018-11-12T11:47:09.078Z,9.30
2018-11-12T11:49:37.423Z,9.60
2018-11-12T11:52:05.817Z,11.73
2018-11-12T11:54:34.201Z,12.70
2018-11-12T11:57:02.651Z,10.70
2018-11-12T11:59:30.973Z,9.13
2018-11-12T12:01:59.357Z,8.90
2018-11-12T12:04:27.969Z,11.38
2018-11-12T12:06:56.371Z,8.53
2018-11-12T12:09:24.826Z,7.47
2018-11-12T12:11:53.173Z,10.45
2018-11-12T12:14:22.091Z,10.00
2018-11-12T12:16:50.479Z,9.87
2018-11-12T12:19:19.223Z,13.55
2018-11-12T12:21:48.292Z,9.07
2018-11-12T12:24:17.417Z,12.70
2018-11-12T12:26:45.872Z,10.27
2018-11-12T12:29:14.569Z,8.97
2018-11-12T12:31:43.009Z,9.27
2018-11-12T12:34:11.676Z,9.93
2018-11-12T12:36:40.061Z,9.87
2018-11-12T12:39:09.847Z,8.53
2018-11-12T12:41:38.262Z,8.13
2018-11-12T12:44:06.675Z,9.30
2018-11-12T12:46:35.364Z,8.20
2018-11-12T12:49:03.848Z,7.03
2018-11-12T12:51:32.263Z,5.93
2018-11-12T12:54:00.619Z,4.67
2018-11-12T12:56:29.006Z,4.07
2018-11-12T12:58:57.562Z,8.03
2018-11-12T13:01:26.033Z,4.43
2018-11-12T13:03:54.339Z,3.93
2018-11-12T13:06:23.334Z,4.93
2018-11-12T13:08:51.716Z,4.47
2018-11-12T13:11:20.075Z,6.20
2018-11-12T13:13:48.487Z,5.43
2018-11-12T13:16:17.461Z,5.20
2018-11-12T13:18:45.831Z,4.10
2018-11-12T13:21:14.213Z,6.47
2018-11-12T13:23:42.569Z,5.33
2018-11-12T13:26:10.925Z,4.80
2018-11-12T13:28:39.285Z,3.33
2018-11-12T13:31:07.712Z,4.87
2018-11-12T13:33:36.147Z,3.63
2018-11-12T13:36:04.788Z,3.50
2018-11-12T13:38:33.326Z,3.10
2018-11-12T13:41:01.702Z,3.00
2018-11-12T13:43:30.094Z,3.73
2018-11-12T13:45:58.635Z,3.77
2018-11-12T13:48:26.987Z,3.60
2018-11-12T13:50:55.389Z,3.43
2018-11-12T13:53:24.123Z,3.80
2018-11-12T13:55:52.474Z,7.47
2018-11-12T13:58:21.132Z,3.90
2018-11-12T14:00:49.530Z,4.90
2018-11-12T14:03:18.169Z,8.70
2018-11-12T14:05:46.519Z,5.40
2018-11-12T14:08:14.902Z,5.57
2018-11-12T14:10:43.260Z,5.60
2018-11-12T14:13:11.621Z,6.93
2018-11-12T14:15:39.989Z,6.43
2018-11-12T14:18:08.350Z,9.90
2018-11-12T14:20:36.776Z,8.07
2018-11-12T14:23:05.178Z,7.87
2018-11-12T14:25:33.532Z,8.70
2018-11-12T14:28:01.929Z,6.10
2018-11-12T14:30:31.067Z,7.83
2018-11-12T14:32:59.695Z,7.77
2018-11-12T14:35:29.369Z,5.70
2018-11-12T14:37:58.000Z,4.97
2018-11-12T14:40:26.640Z,5.90
2018-11-12T14:42:55.032Z,5.40
2018-11-12T14:45:23.440Z,10.13
2018-11-12T14:47:52.119Z,11.93
2018-11-12T14:50:20.473Z,4.33
2018-11-12T14:52:49.027Z,4.07
2018-11-12T14:55:17.992Z,4.83
2018-11-12T14:57:46.357Z,6.20
2018-11-12T15:00:19.945Z,4.43
2018-11-12T15:02:48.955Z,4.87
2018-11-12T15:05:18.491Z,5.20
2018-11-12T15:07:46.879Z,4.60
2018-11-12T15:10:15.597Z,4.73
2018-11-12T15:12:45.108Z,5.50
2018-11-12T15:15:13.813Z,5.60
2018-11-12T15:17:42.433Z,8.83
2018-11-12T15:20:12.975Z,8.53
2018-11-12T15:22:41.437Z,8.33
2018-11-12T15:25:14.714Z,8.10
2018-11-12T15:27:43.749Z,7.10
2018-11-12T15:30:14.340Z,7.00
2018-11-12T15:32:43.444Z,7.17
2018-11-12T15:35:12.972Z,6.40
2018-11-12T15:37:42.235Z,9.40
2018-11-12T15:40:11.383Z,5.23
2018-11-12T15:42:40.326Z,7.53
2018-11-12T15:45:15.073Z,9.00
2018-11-12T15:47:44.922Z,7.37
2018-11-12T15:50:15.632Z,6.92
2018-11-12T15:52:44.713Z,6.75
2018-11-12T15:55:15.648Z,8.33
2018-11-12T15:57:42.190Z,7.78
2018-11-12T16:00:14.512Z,7.28
2018-11-12T16:02:42.918Z,9.23
2018-11-12T16:05:12.049Z,7.17
2018-11-12T16:07:40.990Z,8.23
2018-11-12T16:10:12.012Z,9.18
2018-11-12T16:12:40.973Z,7.03
2018-11-12T16:15:10.567Z,8.60
2018-11-12T16:17:39.255Z,8.75
2018-11-12T16:20:15.739Z,9.30
2018-11-12T16:22:45.557Z,8.27
2018-11-12T16:25:14.445Z,8.10
2018-11-12T16:27:43.280Z,9.13
2018-11-12T16:30:12.533Z,8.93
2018-11-12T16:32:41.605Z,8.68
2018-11-12T16:35:13.099Z,7.53
2018-11-12T16:37:41.921Z,9.08
2018-11-12T16:40:10.407Z,6.80
2018-11-12T16:42:39.690Z,8.13
2018-11-12T16:45:08.136Z,7.55
2018-11-12T16:47:36.552Z,9.25
2018-11-12T16:50:06.251Z,8.23
2018-11-12T16:52:34.645Z,9.30
2018-11-12T16:55:03.122Z,8.53
2018-11-12T16:57:31.819Z,8.45
2018-11-12T17:00:00.260Z,7.87
2018-11-12T17:02:28.802Z,8.77
2018-11-12T17:04:57.226Z,9.80
2018-11-12T17:07:26.219Z,11.18
2018-11-12T17:09:54.656Z,7.60
2018-11-12T17:12:23.091Z,7.83
2018-11-12T17:14:51.673Z,9.40
2018-11-12T17:17:20.341Z,9.90
2018-11-12T17:19:48.790Z,14.40
2018-11-12T17:22:17.446Z,12.18
2018-11-12T17:24:46.180Z,13.95
2018-11-12T17:27:14.561Z,18.40
2018-11-12T17:29:43.088Z,12.45
2018-11-12T17:32:11.458Z,16.00
2018-11-12T17:34:39.865Z,13.72
2018-11-12T17:37:08.242Z,17.10
2018-11-12T17:39:36.613Z,17.02
2018-11-12T17:42:05.339Z,16.70
2018-11-12T17:44:33.784Z,14.73
2018-11-12T17:47:02.151Z,15.58
2018-11-12T17:49:30.605Z,16.48
2018-11-12T17:51:58.969Z,19.32
2018-11-12T17:54:27.564Z,17.25
2018-11-12T17:56:55.941Z,19.67
2018-11-12T17:59:24.356Z,18.65
2018-11-12T18:01:53.059Z,18.17
2018-11-12T18:04:21.461Z,26.15
2018-11-12T18:06:49.855Z,23.52
2018-11-12T18:09:18.217Z,23.32
2018-11-12T18:11:46.893Z,28.62
2018-11-12T18:14:15.268Z,20.43
2018-11-12T18:16:43.651Z,22.17
2018-11-12T18:19:12.309Z,20.75
2018-11-12T18:21:41.281Z,23.22
2018-11-12T18:24:09.688Z,24.35
2018-11-12T18:26:38.100Z,23.30
2018-11-12T18:29:07.439Z,25.77
2018-11-12T18:31:35.865Z,18.07
2018-11-12T18:34:04.891Z,17.37
2018-11-12T18:36:33.282Z,17.67
2018-11-12T18:39:01.658Z,17.15
2018-11-12T18:41:30.245Z,18.35
2018-11-12T18:43:58.751Z,27.30
2018-11-12T18:46:27.125Z,25.87
2018-11-12T18:48:55.672Z,35.65
2018-11-12T18:51:24.300Z,45.52
2018-11-12T18:53:52.674Z,49.53
2018-11-12T18:56:21.113Z,33.65
2018-11-12T18:58:49.486Z,45.00
2018-11-12T19:01:17.865Z,27.55
2018-11-12T19:03:46.557Z,24.95
2018-11-12T19:06:14.929Z,23.52
2018-11-12T19:08:43.296Z,23.02
2018-11-12T19:11:11.724Z,23.95
2018-11-12T19:13:40.133Z,27.15
2018-11-12T19:16:08.521Z,25.45
2018-11-12T19:18:37.176Z,20.08
2018-11-12T19:21:05.781Z,21.65
2018-11-12T19:23:34.183Z,29.18
2018-11-12T19:26:03.202Z,25.37
2018-11-12T19:28:31.872Z,30.80
2018-11-12T19:31:00.245Z,25.60
2018-11-12T19:33:29.179Z,28.57
2018-11-12T19:35:57.911Z,31.30
2018-11-12T19:38:26.286Z,26.48
2018-11-12T19:40:54.734Z,31.15
2018-11-12T19:43:23.371Z,29.18
2018-11-12T19:45:51.761Z,24.30
2018-11-12T19:48:20.170Z,22.87
2018-11-12T19:50:48.582Z,26.27
2018-11-12T19:53:16.949Z,24.65
2018-11-12T19:55:45.342Z,35.15
2018-11-12T19:58:13.735Z,32.08
2018-11-12T20:00:42.228Z,26.27
2018-11-12T20:03:10.632Z,26.40
2018-11-12T20:05:39.131Z,25.12
2018-11-12T20:08:07.787Z,28.60
2018-11-12T20:10:36.471Z,26.33
2018-11-12T20:13:05.479Z,24.77
2018-11-12T20:15:34.189Z,19.52
2018-11-12T20:18:02.898Z,20.02
2018-11-12T20:20:32.927Z,21.60
2018-11-12T20:23:01.471Z,20.02
2018-11-12T20:25:30.053Z,18.30
2018-11-12T20:27:58.832Z,16.77
2018-11-12T20:30:30.075Z,21.97
2018-11-12T20:32:58.470Z,17.57
2018-11-12T20:35:26.860Z,18.67
2018-11-12T20:37:55.724Z,17.25
2018-11-12T20:40:24.145Z,16.05
2018-11-12T20:42:52.521Z,21.70
2018-11-12T20:45:21.869Z,19.10
2018-11-12T20:47:51.585Z,23.47
2018-11-12T20:50:20.630Z,20.15
2018-11-12T20:52:49.024Z,19.00
2018-11-12T20:55:18.018Z,23.18
2018-11-12T20:57:46.859Z,23.47
2018-11-12T21:00:17.439Z,20.17
2018-11-12T21:02:47.121Z,18.57
2018-11-12T21:05:15.826Z,18.60
2018-11-12T21:07:44.552Z,23.83
2018-11-12T21:10:14.932Z,21.15
2018-11-12T21:12:43.649Z,25.60
2018-11-12T21:15:13.094Z,17.55
2018-11-12T21:17:41.534Z,20.92
2018-11-12T21:20:12.259Z,18.98
2018-11-12T21:22:40.661Z,13.93
2018-11-12T21:25:10.633Z,14.85
2018-11-12T21:27:39.422Z,17.65
2018-11-12T21:30:11.987Z,9.55
2018-11-12T21:32:40.419Z,10.08
2018-11-12T21:35:09.140Z,9.38
2018-11-12T21:37:37.655Z,9.88
2018-11-12T21:40:08.882Z,14.15
2018-11-12T21:42:37.247Z,10.98
2018-11-12T21:45:06.897Z,9.58
2018-11-12T21:47:35.293Z,9.05
2018-11-12T21:50:04.232Z,10.48
2018-11-12T21:52:32.582Z,10.25
2018-11-12T21:55:01.393Z,10.45
2018-11-12T21:57:29.962Z,9.63
2018-11-12T21:59:58.426Z,8.58
2018-11-12T22:02:26.804Z,22.75
2018-11-12T22:04:55.436Z,10.20
2018-11-12T22:07:23.836Z,9.48
2018-11-12T22:09:52.197Z,8.75
2018-11-12T22:12:20.877Z,10.13
2018-11-12T22:14:49.604Z,10.90
2018-11-12T22:17:17.957Z,12.55
2018-11-12T22:19:47.038Z,10.98
2018-11-12T22:22:15.353Z,9.50
2018-11-12T22:24:43.739Z,9.93
2018-11-12T22:27:12.099Z,10.68
2018-11-12T22:29:40.489Z,9.80
2018-11-12T22:32:09.424Z,9.23
2018-11-12T22:34:38.151Z,10.75
2018-11-12T22:37:07.134Z,9.75
2018-11-12T22:39:35.494Z,13.85
2018-11-12T22:42:04.212Z,8.33
2018-11-12T22:44:32.738Z,10.95
2018-11-12T22:47:01.110Z,11.63
2018-11-12T22:49:29.485Z,7.72
2018-11-12T22:51:58.078Z,10.13
2018-11-12T22:54:26.498Z,9.35
2018-11-12T22:56:54.853Z,10.70
2018-11-12T22:59:23.227Z,11.75
2018-11-12T23:01:51.849Z,8.25
2018-11-12T23:04:20.207Z,8.00
2018-11-12T23:06:48.606Z,8.70
2018-11-12T23:09:18.343Z,9.08
2018-11-12T23:11:47.025Z,9.00
2018-11-12T23:14:16.143Z,7.85
2018-11-12T23:16:45.219Z,10.53
2018-11-12T23:19:13.865Z,12.63
2018-11-12T23:21:42.301Z,10.05
2018-11-12T23:24:10.669Z,7.90
2018-11-12T23:26:39.138Z,29.18
2018-11-12T23:29:07.755Z,8.55
2018-11-12T23:31:36.116Z,7.00
2018-11-12T23:34:04.477Z,8.08
2018-11-12T23:36:32.869Z,7.67
2018-11-12T23:39:01.232Z,7.62
2018-11-12T23:41:29.890Z,6.50
2018-11-12T23:43:58.634Z,7.53
2018-11-12T23:46:26.996Z,7.10
2018-11-12T23:48:55.335Z,7.55
2018-11-12T23:51:23.775Z,8.58
2018-11-12T23:53:52.410Z,6.97
2018-11-12T23:56:20.811Z,8.65
2018-11-12T23:58:49.196Z,7.83
